Pagina principale
METAR-TAF:

METAR-TAF

Aeroporti :

Polokwane, Sudafrica

latitudine: 23-50-43S, longitudine: 29-27-31E, altezza: 1242 m

Osservazione

Il bollettino è stato emesso 36 minuti fa, alle 16:00 UTC
Vento 4 kt da nord-est
Temperature 20°C
Umidità 32%
Pressione 1027 hPa
Visibilità 10 km o più
nessuna nube inferiore a 1500 m e nessun cumulonembo

METAR: FAPP 311600Z 05004KT CAVOK 20/03 Q1027 NOSIG

Ora: 18:36 (16:36 UTC)

Previsione

Il bollettino è stato emesso 7 ore e 36 minuti fa, alle 09:00 UTC
Previsione valida dal 31 alle 10 UTC al 31 alle 18 UTC
Vento 3 kt da direzioni variabili
Visibilità 10 km o più
nessuna nube inferiore a 1500 m e nessun cumulonembo

TAF: FAPP 310900Z 3110/3118 VRB03KT CAVOK TX24/3113Z TN08/3118Z

Osservazioni e previsioni meteorologiche di più di 4000 aeroporti (messaggi METAR e TAF).

Le stazioni disponibili sono rappresentate dai dischi gialli e rossi sulla carta.

Puntare il mouse per vedere il nome della stazione.

Clicca sopra per visualizzare le osservazioni e previsioni meteorologiche.

Per cambiare la mappa : fare clic sui pulsanti verdi con una croce nera per ingrandire, il pulsante verde con un trattino per diminuire, o sulla freccia verde per le mappe adiacenti.


METAR-TAF: